Time;durP1;ratioP1;P1;durP2;ratioP2;P2;SDS_P1;SDS_P2;PMS_P1;PMS_P2;Temp;Humidity;BMP_temperature;BMP_pressure;BME280_temperature;BME280_humidity;BME280_pressure;Samples;Min_cycle;Max_cycle;Signal;HPM_P1;HPM_P2
2020/12/15 06:05:56;;;;;;;1999.90;999.90;;;2.90;99.90;;;;;;5097588;27;20544;-49
2020/12/15 06:08:22;;;;;;;1999.90;999.90;;;2.90;99.90;;;;;;5103811;28;20424;-50
2020/12/15 06:10:52;;;;;;;1999.90;999.90;;;3.00;99.90;;;;;;5102895;28;20433;-52
2020/12/15 06:13:17;;;;;;;1999.90;999.90;;;3.00;99.90;;;;;;5100983;28;20511;-48
2020/12/15 06:15:43;;;;;;;1999.90;999.90;;;3.00;99.90;;;;;;5100246;28;20506;-48
2020/12/15 06:18:11;;;;;;;1999.90;999.90;;;3.10;99.90;;;;;;5106093;28;20286;-48
2020/12/15 06:20:37;;;;;;;1999.90;999.90;;;3.10;99.90;;;;;;5108494;28;20179;-50
2020/12/15 06:23:06;;;;;;;1999.90;999.90;;;3.10;99.90;;;;;;5108125;28;20405;-50
2020/12/15 06:25:35;;;;;;;1999.90;999.90;;;3.20;99.90;;;;;;5107496;28;20471;-48
2020/12/15 06:28:09;;;;;;;1999.90;999.90;;;3.10;99.90;;;;;;5107453;28;20818;-49
2020/12/15 06:30:45;;;;;;;1999.90;999.90;;;3.20;99.90;;;;;;5102965;28;20513;-49
2020/12/15 06:33:13;;;;;;;1999.90;999.90;;;3.20;99.90;;;;;;5108713;28;20409;-49
2020/12/15 06:35:40;;;;;;;1999.90;999.90;;;3.20;99.90;;;;;;5108002;28;20444;-50
2020/12/15 06:38:20;;;;;;;1999.90;999.90;;;3.10;99.90;;;;;;5109056;28;20465;-48
2020/12/15 06:40:48;;;;;;;1999.90;999.90;;;3.20;99.90;;;;;;5109223;28;20796;-49
2020/12/15 06:43:27;;;;;;;1999.90;999.90;;;3.20;99.90;;;;;;5109000;28;20449;-49
2020/12/15 06:46:12;;;;;;;1999.90;999.90;;;3.20;99.90;;;;;;5109260;28;20424;-48
2020/12/15 06:48:43;;;;;;;1999.90;999.90;;;3.20;99.90;;;;;;5105876;28;20423;-49
2020/12/15 06:51:09;;;;;;;1999.90;999.90;;;3.30;99.90;;;;;;5094742;28;20468;-49
2020/12/15 06:53:34;;;;;;;1999.90;999.90;;;3.30;99.90;;;;;;5100866;28;20426;-48
2020/12/15 06:56:02;;;;;;;1999.90;999.90;;;3.20;99.90;;;;;;5098277;28;20179;-49
2020/12/15 06:58:28;;;;;;;1999.90;999.90;;;3.30;99.90;;;;;;5115866;28;20199;-48
2020/12/15 07:00:54;;;;;;;1999.90;999.90;;;3.30;99.90;;;;;;5119633;28;20513;-49
2020/12/15 07:03:36;;;;;;;1999.90;999.90;;;3.30;99.90;;;;;;5107285;28;20487;-47
2020/12/15 07:06:16;;;;;;;1999.90;999.90;;;3.30;99.90;;;;;;5109223;28;20202;-49
2020/12/15 07:08:43;;;;;;;1999.90;999.90;;;3.20;99.90;;;;;;5088870;28;20426;-48
2020/12/15 07:11:08;;;;;;;1999.90;999.90;;;3.20;99.90;;;;;;5099200;28;20439;-50
2020/12/15 07:13:34;;;;;;;1999.90;999.90;;;3.30;99.90;;;;;;5105958;28;21048;-47
2020/12/15 07:16:00;;;;;;;1999.90;999.90;;;3.30;99.90;;;;;;5098492;28;20204;-48
2020/12/15 07:18:25;;;;;;;1999.90;999.90;;;3.40;99.90;;;;;;5089459;28;20569;-48
2020/12/15 07:20:51;;;;;;;1999.90;999.90;;;3.40;99.90;;;;;;5092343;28;20180;-51
2020/12/15 07:23:17;;;;;;;1999.90;999.90;;;3.40;99.90;;;;;;5087371;28;20192;-49
2020/12/15 07:25:44;;;;;;;1999.90;999.90;;;3.50;99.90;;;;;;5089587;28;20302;-47
2020/12/15 07:28:10;;;;;;;1999.90;999.90;;;3.50;99.90;;;;;;5083583;28;20984;-49
2020/12/15 07:30:38;;;;;;;1999.90;999.90;;;3.50;99.90;;;;;;5090146;28;20940;-49
2020/12/15 07:33:04;;;;;;;1999.90;999.90;;;3.60;99.90;;;;;;5072367;28;20427;-51
2020/12/15 07:35:30;;;;;;;1999.90;999.90;;;3.60;99.90;;;;;;5088044;28;20468;-50
2020/12/15 07:37:57;;;;;;;1999.90;999.90;;;3.60;99.90;;;;;;5081476;28;20205;-50
2020/12/15 07:40:24;;;;;;;1999.90;999.90;;;3.60;99.90;;;;;;5083013;28;20779;-49
2020/12/15 07:42:57;;;;;;;1999.90;999.90;;;3.70;99.90;;;;;;5079028;28;20439;-48
2020/12/15 07:45:25;;;;;;;1999.90;999.90;;;3.70;99.90;;;;;;5078288;28;20932;-49
2020/12/15 07:47:52;;;;;;;1999.90;999.90;;;3.70;99.90;;;;;;5082273;28;20468;-50
2020/12/15 07:50:28;;;;;;;1999.90;999.90;;;3.60;99.90;;;;;;5090194;28;20426;-48
2020/12/15 07:53:16;;;;;;;1999.90;999.90;;;3.60;99.90;;;;;;5091263;28;20427;-48
2020/12/15 07:55:41;;;;;;;1999.90;999.90;;;3.60;99.90;;;;;;5092391;28;20425;-49
2020/12/15 07:58:15;;;;;;;1999.90;999.90;;;3.60;99.90;;;;;;5090181;28;20440;-48
2020/12/15 08:00:41;;;;;;;1999.90;999.90;;;3.60;99.90;;;;;;5090462;28;20185;-50
2020/12/15 08:03:08;;;;;;;1999.90;999.90;;;3.60;99.90;;;;;;5091628;28;20960;-50
2020/12/15 08:05:34;;;;;;;1999.90;999.90;;;3.60;99.90;;;;;;5091970;28;20492;-50
2020/12/15 08:08:02;;;;;;;1999.90;999.90;;;3.70;99.90;;;;;;5089908;28;21565;-50
2020/12/15 08:10:33;;;;;;;1999.90;999.90;;;3.70;99.90;;;;;;5082509;28;20613;-50
2020/12/15 08:13:01;;;;;;;1999.90;999.90;;;3.80;99.90;;;;;;5082024;28;20429;-49
2020/12/15 08:15:36;;;;;;;1999.90;999.90;;;3.70;99.90;;;;;;5088138;28;20418;-49
2020/12/15 08:18:03;;;;;;;1999.90;999.90;;;3.70;99.90;;;;;;5088604;28;20438;-49
2020/12/15 14:53:53;;;;;;;1999.90;999.90;;;4.80;99.90;;;;;;5103588;27;20624;-50
2020/12/15 14:56:19;;;;;;;1999.90;999.90;;;4.70;99.90;;;;;;5085992;28;20446;-49
2020/12/15 14:58:45;;;;;;;1999.90;999.90;;;4.70;99.90;;;;;;5089905;28;20433;-49
2020/12/15 15:01:13;;;;;;;1999.90;999.90;;;4.80;99.90;;;;;;5454907;22;20498;-52
2020/12/15 15:03:39;;;;;;;1999.90;999.90;;;4.70;99.90;;;;;;5063646;28;20442;-51
2020/12/15 15:06:04;;;;;;;1999.90;999.90;;;4.70;99.90;;;;;;5064149;28;20447;-50
2020/12/15 15:08:30;;;;;;;1999.90;999.90;;;4.70;99.90;;;;;;5061375;28;21025;-51
2020/12/15 15:10:56;;;;;;;1999.90;999.90;;;4.70;99.90;;;;;;5057726;28;20208;-50
2020/12/15 15:13:21;;;;;;;1999.90;999.90;;;4.70;99.90;;;;;;5064326;28;20209;-51
2020/12/15 15:15:47;;;;;;;1999.90;999.90;;;4.70;99.90;;;;;;5064210;28;20181;-50
2020/12/15 15:18:12;;;;;;;1999.90;999.90;;;4.70;99.90;;;;;;5062853;28;20294;-51
2020/12/15 15:20:38;;;;;;;1999.90;999.90;;;4.70;99.90;;;;;;5064064;28;20345;-49
2020/12/15 15:23:04;;;;;;;1999.90;999.90;;;4.70;99.90;;;;;;5055132;28;20191;-50
2020/12/15 15:25:30;;;;;;;1999.90;999.90;;;4.70;99.90;;;;;;5061262;28;20552;-50
2020/12/15 15:27:56;;;;;;;1999.90;999.90;;;4.60;99.90;;;;;;5055944;28;20432;-50
2020/12/15 15:30:22;;;;;;;1999.90;999.90;;;4.60;99.90;;;;;;5060647;28;20189;-51
2020/12/15 15:32:47;;;;;;;1999.90;999.90;;;4.60;99.90;;;;;;5063034;28;20193;-52
2020/12/15 15:35:13;;;;;;;1999.90;999.90;;;4.60;99.90;;;;;;5061905;28;20228;-50
2020/12/15 15:37:38;;;;;;;1999.90;999.90;;;4.60;99.90;;;;;;5063589;28;20178;-51
2020/12/15 15:40:04;;;;;;;1999.90;999.90;;;4.60;99.90;;;;;;5066260;28;20683;-51
2020/12/15 15:42:30;;;;;;;1999.90;999.90;;;4.60;99.90;;;;;;5070003;28;20205;-50
2020/12/15 15:44:55;;;;;;;1999.90;999.90;;;4.60;99.90;;;;;;5064794;28;20181;-50
2020/12/15 15:47:21;;;;;;;1999.90;999.90;;;4.50;99.90;;;;;;5064962;28;20724;-49
2020/12/15 15:49:47;;;;;;;1999.90;999.90;;;4.50;99.90;;;;;;5067197;28;20254;-50
2020/12/15 15:52:12;;;;;;;1999.90;999.90;;;4.50;99.90;;;;;;5065413;28;20623;-48
2020/12/15 15:54:38;;;;;;;1999.90;999.90;;;4.50;99.90;;;;;;5076816;28;20257;-52
2020/12/15 15:57:04;;;;;;;1999.90;999.90;;;4.50;99.90;;;;;;5065835;28;20219;-49
2020/12/15 15:59:30;;;;;;;1999.90;999.90;;;4.50;99.90;;;;;;5067443;28;20197;-49
2020/12/15 16:01:55;;;;;;;1999.90;999.90;;;4.50;99.90;;;;;;5064270;28;20332;-49
2020/12/15 16:04:25;;;;;;;1999.90;999.90;;;4.50;99.90;;;;;;5053377;28;20182;-48
2020/12/15 16:06:52;;;;;;;1999.90;999.90;;;4.50;99.90;;;;;;5051192;28;20182;-52
2020/12/15 16:09:18;;;;;;;1999.90;999.90;;;4.40;99.90;;;;;;5047100;28;20506;-51
2020/12/15 16:11:52;;;;;;;1999.90;999.90;;;4.50;99.90;;;;;;5051315;28;20444;-49
2020/12/15 16:14:18;;;;;;;1999.90;999.90;;;4.50;99.90;;;;;;5050245;28;20440;-49
2020/12/15 16:16:47;;;;;;;1999.90;999.90;;;4.50;99.90;;;;;;5050221;28;20842;-49
2020/12/15 16:19:13;;;;;;;1999.90;999.90;;;4.40;99.90;;;;;;5032241;28;20967;-50
2020/12/15 16:21:39;;;;;;;1999.90;999.90;;;4.40;99.90;;;;;;5047662;28;20861;-48
2020/12/15 16:24:05;;;;;;;1999.90;999.90;;;4.40;99.90;;;;;;5044029;28;20440;-51
2020/12/15 16:26:31;;;;;;;1999.90;999.90;;;4.40;99.90;;;;;;5031658;28;20437;-49
2020/12/15 16:29:00;;;;;;;1999.90;999.90;;;4.40;99.90;;;;;;5015098;28;20456;-49
2020/12/15 16:31:26;;;;;;;1999.90;999.90;;;4.40;99.90;;;;;;5049607;28;20245;-51
2020/12/15 16:33:52;;;;;;;1999.90;999.90;;;4.40;99.90;;;;;;5048337;28;20482;-51
2020/12/15 16:36:18;;;;;;;1999.90;999.90;;;4.30;99.90;;;;;;5046671;28;20437;-49
2020/12/15 16:38:43;;;;;;;1999.90;999.90;;;4.30;99.90;;;;;;5048833;28;20888;-52
2020/12/15 16:41:11;;;;;;;1999.90;999.90;;;4.30;99.90;;;;;;5052675;28;20708;-51
2020/12/15 16:43:38;;;;;;;1999.90;999.90;;;4.40;99.90;;;;;;5051464;28;20185;-51
2020/12/15 16:46:10;;;;;;;1999.90;999.90;;;4.40;99.90;;;;;;5049175;28;20959;-50
2020/12/15 16:48:39;;;;;;;1999.90;999.90;;;4.40;99.90;;;;;;5047657;28;20535;-49
2020/12/15 16:51:05;;;;;;;1999.90;999.90;;;4.30;99.90;;;;;;5047751;28;20501;-50
2020/12/15 16:53:31;;;;;;;1999.90;999.90;;;4.40;99.90;;;;;;5045801;28;20502;-50
2020/12/15 16:55:57;;;;;;;1999.90;999.90;;;4.30;99.90;;;;;;5048713;28;20868;-50
2020/12/15 16:58:23;;;;;;;1999.90;999.90;;;4.30;99.90;;;;;;5060179;28;20252;-50
2020/12/15 17:00:49;;;;;;;1999.90;999.90;;;4.30;99.90;;;;;;5055915;28;20988;-50
2020/12/15 17:03:17;;;;;;;1999.90;999.90;;;4.30;99.90;;;;;;5049617;28;20188;-51
2020/12/15 17:05:42;;;;;;;1999.90;999.90;;;4.30;99.90;;;;;;5049196;28;20555;-50
2020/12/15 17:08:08;;;;;;;1999.90;999.90;;;4.30;99.90;;;;;;5052672;28;20448;-52
2020/12/15 17:10:34;;;;;;;1999.90;999.90;;;4.30;99.90;;;;;;5044886;28;20202;-52
2020/12/15 17:13:00;;;;;;;1999.90;999.90;;;4.30;99.90;;;;;;5047614;28;20545;-50
2020/12/15 17:15:26;;;;;;;1999.90;999.90;;;4.20;99.90;;;;;;5046000;28;20190;-51
2020/12/15 17:17:51;;;;;;;1999.90;999.90;;;4.20;99.90;;;;;;5047924;28;20437;-51
2020/12/15 17:20:17;;;;;;;1999.90;999.90;;;4.20;99.90;;;;;;5049610;28;20247;-51
2020/12/15 17:22:45;;;;;;;1999.90;999.90;;;4.20;99.90;;;;;;5048609;28;20185;-51
2020/12/15 17:25:12;;;;;;;1999.90;999.90;;;4.20;99.90;;;;;;5049036;28;20737;-51
2020/12/15 17:27:38;;;;;;;1999.90;999.90;;;4.20;99.90;;;;;;5051182;28;21007;-51
2020/12/15 17:30:04;;;;;;;1999.90;999.90;;;4.20;99.90;;;;;;5050532;28;20435;-51
2020/12/15 17:32:29;;;;;;;1999.90;999.90;;;4.20;99.90;;;;;;5050437;28;20201;-51
2020/12/15 17:34:57;;;;;;;1999.90;999.90;;;4.20;99.90;;;;;;5049195;28;20819;-51
2020/12/15 17:37:22;;;;;;;1999.90;999.90;;;4.20;99.90;;;;;;5051267;28;20544;-51
2020/12/15 17:39:48;;;;;;;1999.90;999.90;;;4.20;99.90;;;;;;5051800;28;20424;-51
2020/12/15 17:42:14;;;;;;;1999.90;999.90;;;4.20;99.90;;;;;;5049179;28;20209;-51
2020/12/15 17:44:39;;;;;;;1999.90;999.90;;;4.20;99.90;;;;;;5047324;28;20201;-51
2020/12/15 17:47:10;;;;;;;1999.90;999.90;;;4.20;99.90;;;;;;5051063;28;20190;-49
2020/12/15 17:49:35;;;;;;;1999.90;999.90;;;4.10;99.90;;;;;;5048678;28;20589;-49
2020/12/15 17:52:02;;;;;;;1999.90;999.90;;;4.10;99.90;;;;;;5051697;28;20466;-49
2020/12/15 17:54:28;;;;;;;1999.90;999.90;;;4.10;99.90;;;;;;5047617;28;20185;-51
2020/12/15 17:56:55;;;;;;;1999.90;999.90;;;4.10;99.90;;;;;;5046863;28;20473;-51
2020/12/15 17:59:21;;;;;;;1999.90;999.90;;;4.00;99.90;;;;;;5048478;28;20436;-51
2020/12/15 18:01:50;;;;;;;1999.90;999.90;;;4.10;99.90;;;;;;5047913;28;20514;-51
2020/12/15 18:04:16;;;;;;;1999.90;999.90;;;4.00;99.90;;;;;;5045767;28;20502;-51
2020/12/15 18:06:42;;;;;;;1999.90;999.90;;;3.90;99.90;;;;;;5049178;28;20873;-51
2020/12/15 18:09:08;;;;;;;1999.90;999.90;;;3.90;99.90;;;;;;5046951;28;20436;-51
2020/12/15 18:11:34;;;;;;;1999.90;999.90;;;3.90;99.90;;;;;;5047912;28;20217;-51
2020/12/15 18:13:59;;;;;;;1999.90;999.90;;;3.80;99.90;;;;;;5047042;28;20455;-51
2020/12/15 18:16:34;;;;;;;1999.90;999.90;;;3.80;99.90;;;;;;5048886;28;20231;-51
2020/12/15 18:19:01;;;;;;;1999.90;999.90;;;3.90;99.90;;;;;;5046816;28;20193;-48
2020/12/15 18:21:31;;;;;;;1999.90;999.90;;;4.00;99.90;;;;;;5044399;28;20604;-49
2020/12/15 18:23:58;;;;;;;1999.90;999.90;;;4.00;99.90;;;;;;5049037;28;20437;-49
2020/12/15 18:26:24;;;;;;;1999.90;999.90;;;4.10;99.90;;;;;;5047449;28;20450;-49
2020/12/15 18:28:50;;;;;;;1999.90;999.90;;;4.10;99.90;;;;;;5047695;28;20444;-49
2020/12/15 18:31:17;;;;;;;1999.90;999.90;;;4.20;99.90;;;;;;5043586;28;20494;-49
2020/12/15 18:33:44;;;;;;;1999.90;999.90;;;4.20;99.90;;;;;;5044879;28;20471;-49
2020/12/15 18:36:12;;;;;;;1999.90;999.90;;;4.20;99.90;;;;;;5045805;28;20443;-49
2020/12/15 18:38:38;;;;;;;1999.90;999.90;;;4.20;99.90;;;;;;5043862;28;20905;-48
2020/12/15 18:41:04;;;;;;;1999.90;999.90;;;4.20;99.90;;;;;;5040278;28;20443;-48
2020/12/15 18:43:29;;;;;;;1999.90;999.90;;;4.20;99.90;;;;;;5043004;28;20197;-49
2020/12/15 18:45:55;;;;;;;1999.90;999.90;;;4.20;99.90;;;;;;5043203;28;20196;-48
2020/12/15 18:48:21;;;;;;;1999.90;999.90;;;4.30;99.90;;;;;;5041279;28;20212;-49
2020/12/15 18:50:47;;;;;;;1999.90;999.90;;;4.20;99.90;;;;;;5039652;28;20354;-49
2020/12/15 18:53:13;;;;;;;1999.90;999.90;;;4.20;99.90;;;;;;5038550;28;20209;-50
2020/12/15 18:55:38;;;;;;;1999.90;999.90;;;4.20;99.90;;;;;;5039629;28;20433;-50
2020/12/15 18:58:04;;;;;;;1999.90;999.90;;;4.20;99.90;;;;;;5039852;28;20517;-52
2020/12/15 19:00:30;;;;;;;1999.90;999.90;;;4.20;99.90;;;;;;5039107;28;20351;-49
2020/12/15 19:02:55;;;;;;;1999.90;999.90;;;4.20;99.90;;;;;;5042940;28;20224;-50
2020/12/15 19:05:23;;;;;;;1999.90;999.90;;;4.20;99.90;;;;;;5038354;28;20180;-49
2020/12/15 19:07:49;;;;;;;1999.90;999.90;;;4.20;99.90;;;;;;5037971;28;20242;-49
2020/12/15 19:10:15;;;;;;;1999.90;999.90;;;4.30;99.90;;;;;;5038338;28;20466;-50
2020/12/15 19:12:41;;;;;;;1999.90;999.90;;;4.20;99.90;;;;;;5037266;28;21107;-50
2020/12/15 19:15:06;;;;;;;1999.90;999.90;;;4.20;99.90;;;;;;5040730;28;20185;-49
2020/12/15 19:17:32;;;;;;;1999.90;999.90;;;4.20;99.90;;;;;;5040226;28;20178;-50
2020/12/15 19:19:58;;;;;;;1999.90;999.90;;;4.20;99.90;;;;;;5041248;28;20189;-50
2020/12/15 19:22:23;;;;;;;1999.90;999.90;;;4.20;99.90;;;;;;5040372;28;20324;-50
2020/12/15 19:24:49;;;;;;;1999.90;999.90;;;4.20;99.90;;;;;;5039954;28;20187;-50
2020/12/15 19:27:15;;;;;;;1999.90;999.90;;;4.30;99.90;;;;;;5038227;28;20186;-50
2020/12/15 19:29:41;;;;;;;1999.90;999.90;;;4.30;99.90;;;;;;5039860;28;20273;-51
2020/12/15 19:32:07;;;;;;;1999.90;999.90;;;4.20;99.90;;;;;;5039636;28;20475;-50
2020/12/15 19:34:33;;;;;;;1999.90;999.90;;;4.30;99.90;;;;;;5039557;28;20182;-51
2020/12/15 19:36:58;;;;;;;1999.90;999.90;;;4.30;99.90;;;;;;5042916;28;20924;-51
2020/12/15 19:39:24;;;;;;;1999.90;999.90;;;4.30;99.90;;;;;;5045219;28;20186;-47
2020/12/15 19:41:50;;;;;;;1999.90;999.90;;;4.30;99.90;;;;;;5050040;28;20627;-48
2020/12/15 19:44:15;;;;;;;1999.90;999.90;;;4.30;99.90;;;;;;5053052;28;20185;-48
2020/12/15 19:46:41;;;;;;;1999.90;999.90;;;4.30;99.90;;;;;;5048841;28;20296;-49
2020/12/15 19:49:07;;;;;;;1999.90;999.90;;;4.30;99.90;;;;;;5043964;28;20182;-47
2020/12/15 19:51:33;;;;;;;1999.90;999.90;;;4.30;99.90;;;;;;5050467;28;20197;-49
2020/12/15 19:53:59;;;;;;;1999.90;999.90;;;4.20;99.90;;;;;;5034085;28;20686;-48
2020/12/15 19:56:26;;;;;;;1999.90;999.90;;;4.30;99.90;;;;;;5052701;28;20419;-48
2020/12/15 19:58:52;;;;;;;1999.90;999.90;;;4.30;99.90;;;;;;5048803;28;20961;-47
2020/12/15 20:01:17;;;;;;;1999.90;999.90;;;4.30;99.90;;;;;;5049647;28;20468;-47
2020/12/15 20:03:43;;;;;;;1999.90;999.90;;;4.30;99.90;;;;;;5049299;28;20448;-47
2020/12/15 20:06:09;;;;;;;1999.90;999.90;;;4.30;99.90;;;;;;5047639;28;20178;-48
2020/12/15 20:08:35;;;;;;;1999.90;999.90;;;4.30;99.90;;;;;;5046806;28;20448;-47
2020/12/15 20:11:01;;;;;;;1999.90;999.90;;;4.30;99.90;;;;;;5045340;28;20471;-48
2020/12/15 20:13:27;;;;;;;1999.90;999.90;;;4.30;99.90;;;;;;5048121;28;20673;-47
2020/12/15 20:15:53;;;;;;;1999.90;999.90;;;4.30;99.90;;;;;;5046374;28;20438;-49
2020/12/15 20:18:19;;;;;;;1999.90;999.90;;;4.30;99.90;;;;;;5047527;28;20178;-48
2020/12/15 20:20:45;;;;;;;1999.90;999.90;;;4.30;99.90;;;;;;5046191;28;20550;-48
2020/12/15 20:23:13;;;;;;;1999.90;999.90;;;4.30;99.90;;;;;;5045241;28;20563;-48
2020/12/15 20:25:39;;;;;;;1999.90;999.90;;;4.30;99.90;;;;;;5047435;28;20892;-48
2020/12/15 20:28:05;;;;;;;1999.90;999.90;;;4.30;99.90;;;;;;5046950;28;20459;-52
2020/12/15 20:30:31;;;;;;;1999.90;999.90;;;4.40;99.90;;;;;;5046395;28;21900;-48
2020/12/15 20:32:57;;;;;;;1999.90;999.90;;;4.30;99.90;;;;;;5045917;28;20544;-47
2020/12/15 20:35:23;;;;;;;1999.90;999.90;;;4.30;99.90;;;;;;5046164;28;20182;-48
2020/12/15 20:37:48;;;;;;;1999.90;999.90;;;4.40;99.90;;;;;;5046396;28;20234;-50
2020/12/15 20:40:14;;;;;;;1999.90;999.90;;;4.30;99.90;;;;;;5045366;28;20541;-51
2020/12/15 20:42:40;;;;;;;1999.90;999.90;;;4.30;99.90;;;;;;5045421;28;20192;-48
2020/12/15 20:45:05;;;;;;;1999.90;999.90;;;4.30;99.90;;;;;;5047266;28;20193;-46
2020/12/15 20:47:31;;;;;;;1999.90;999.90;;;4.30;99.90;;;;;;5042713;28;20190;-48
2020/12/15 20:49:58;;;;;;;1999.90;999.90;;;4.30;99.90;;;;;;5047279;28;20168;-48
2020/12/15 20:52:25;;;;;;;1999.90;999.90;;;4.30;99.90;;;;;;5045523;28;20288;-47
2020/12/15 20:54:51;;;;;;;1999.90;999.90;;;4.30;99.90;;;;;;5044920;28;20433;-48
2020/12/15 20:57:17;;;;;;;1999.90;999.90;;;4.30;99.90;;;;;;5041897;28;20451;-48
2020/12/15 20:59:43;;;;;;;1999.90;999.90;;;4.30;99.90;;;;;;5046112;28;20243;-51
2020/12/15 21:02:09;;;;;;;1999.90;999.90;;;4.30;99.90;;;;;;5044188;28;20471;-51
2020/12/15 21:04:34;;;;;;;1999.90;999.90;;;4.30;99.90;;;;;;5046277;28;20185;-49
2020/12/15 21:07:01;;;;;;;1999.90;999.90;;;4.40;99.90;;;;;;5047579;28;20183;-47
2020/12/15 21:09:26;;;;;;;1999.90;999.90;;;4.30;99.90;;;;;;5042647;28;20182;-48
2020/12/15 21:11:53;;;;;;;1999.90;999.90;;;4.30;99.90;;;;;;5045479;28;20448;-48
2020/12/15 21:14:18;;;;;;;1999.90;999.90;;;4.30;99.90;;;;;;5045484;28;21004;-48
2020/12/15 21:16:51;;;;;;;1999.90;999.90;;;4.30;99.90;;;;;;5046495;28;20450;-47
2020/12/15 21:19:18;;;;;;;1999.90;999.90;;;4.40;99.90;;;;;;5047330;28;20185;-47
2020/12/15 21:21:43;;;;;;;1999.90;999.90;;;4.40;99.90;;;;;;5044380;28;20464;-47
2020/12/15 21:24:09;;;;;;;1999.90;999.90;;;4.40;99.90;;;;;;5045084;28;20443;-48
2020/12/15 21:26:34;;;;;;;1999.90;999.90;;;4.40;99.90;;;;;;5046503;28;20588;-48
2020/12/15 21:29:00;;;;;;;1999.90;999.90;;;4.40;99.90;;;;;;5044411;28;20688;-49
2020/12/15 21:31:27;;;;;;;1999.90;999.90;;;4.40;99.90;;;;;;5045679;28;20701;-49
2020/12/15 21:33:54;;;;;;;1999.90;999.90;;;4.40;99.90;;;;;;5045749;28;20471;-48
2020/12/15 21:36:20;;;;;;;1999.90;999.90;;;4.30;99.90;;;;;;5044295;28;20498;-47
2020/12/15 21:38:45;;;;;;;1999.90;999.90;;;4.30;99.90;;;;;;5046207;28;20436;-47
2020/12/15 21:41:11;;;;;;;1999.90;999.90;;;4.30;99.90;;;;;;5044611;28;20316;-47
2020/12/15 21:43:37;;;;;;;1999.90;999.90;;;4.40;99.90;;;;;;5046278;28;20185;-49
2020/12/15 21:46:03;;;;;;;1999.90;999.90;;;4.40;99.90;;;;;;5045068;28;20185;-50
2020/12/15 21:48:29;;;;;;;1999.90;999.90;;;4.40;99.90;;;;;;5044001;28;20276;-47
2020/12/15 21:50:55;;;;;;;1999.90;999.90;;;4.40;99.90;;;;;;5042628;28;20464;-47
2020/12/15 21:53:20;;;;;;;1999.90;999.90;;;4.30;99.90;;;;;;5045265;28;20516;-47
2020/12/15 21:55:46;;;;;;;1999.90;999.90;;;4.40;99.90;;;;;;5045636;28;20220;-49
2020/12/15 21:58:12;;;;;;;1999.90;999.90;;;4.30;99.90;;;;;;5043709;28;20277;-48
2020/12/15 22:00:38;;;;;;;1999.90;999.90;;;4.30;99.90;;;;;;5044251;28;20498;-48
2020/12/15 22:03:04;;;;;;;1999.90;999.90;;;4.30;99.90;;;;;;5044410;28;20936;-49
2020/12/15 22:05:30;;;;;;;1999.90;999.90;;;4.30;99.90;;;;;;5045203;28;20182;-48
2020/12/15 22:07:56;;;;;;;1999.90;999.90;;;4.30;99.90;;;;;;5044778;28;20980;-49
2020/12/15 22:10:22;;;;;;;1999.90;999.90;;;4.20;99.90;;;;;;5044394;28;20416;-49
2020/12/15 22:12:48;;;;;;;1999.90;999.90;;;4.20;99.90;;;;;;5041543;28;20666;-51
2020/12/15 22:15:13;;;;;;;1999.90;999.90;;;4.20;99.90;;;;;;5043974;28;20437;-48
2020/12/15 22:17:40;;;;;;;1999.90;999.90;;;4.20;99.90;;;;;;5042861;28;20179;-51
2020/12/15 22:20:07;;;;;;;1999.90;999.90;;;4.30;99.90;;;;;;5044955;28;20736;-47
2020/12/15 22:22:34;;;;;;;1999.90;999.90;;;4.20;99.90;;;;;;5044620;28;21278;-47
2020/12/15 22:25:00;;;;;;;1999.90;999.90;;;4.10;99.90;;;;;;5043627;28;20420;-48
2020/12/15 22:27:30;;;;;;;1999.90;999.90;;;4.20;99.90;;;;;;5042915;28;20473;-47
2020/12/15 22:29:57;;;;;;;1999.90;999.90;;;4.20;99.90;;;;;;5044523;28;20497;-49
2020/12/15 22:32:27;;;;;;;1999.90;999.90;;;4.20;99.90;;;;;;5043510;28;20456;-48
2020/12/15 22:34:54;;;;;;;1999.90;999.90;;;4.20;99.90;;;;;;5047501;28;21223;-50
2020/12/15 22:37:20;;;;;;;1999.90;999.90;;;4.30;99.90;;;;;;5050080;28;20463;-52
2020/12/15 22:39:46;;;;;;;1999.90;999.90;;;4.20;99.90;;;;;;5050488;28;20443;-49
2020/12/15 22:42:17;;;;;;;1999.90;999.90;;;4.20;99.90;;;;;;5044791;28;20506;-51
2020/12/15 22:44:42;;;;;;;1999.90;999.90;;;4.30;99.90;;;;;;5044708;28;20210;-49
2020/12/15 22:47:08;;;;;;;1999.90;999.90;;;4.20;99.90;;;;;;5043452;28;20437;-49
2020/12/15 22:49:34;;;;;;;1999.90;999.90;;;4.20;99.90;;;;;;5041664;28;20186;-50
2020/12/15 22:51:59;;;;;;;1999.90;999.90;;;4.20;99.90;;;;;;5043484;28;20268;-50
2020/12/15 22:54:26;;;;;;;1999.90;999.90;;;4.20;99.90;;;;;;5044115;28;20188;-49
2020/12/15 22:56:51;;;;;;;1999.90;999.90;;;4.20;99.90;;;;;;5045343;28;20185;-51
